Time;durP1;ratioP1;P1;durP2;ratioP2;P2;SDS_P1;SDS_P2;PMS_P1;PMS_P2;Temp;Humidity;BMP_temperature;BMP_pressure;BME280_temperature;BME280_humidity;BME280_pressure;Samples;Min_cycle;Max_cycle;Signal;HPM_P1;HPM_P2
2022/07/15 00:01:15;;;;;;;6.93;1.27;;;17.20;92.80;;;;;;5032380;28;20048;-78
2022/07/15 00:03:41;;;;;;;3.78;1.40;;;16.90;93.10;;;;;;5031076;28;20112;-77
2022/07/15 00:06:07;;;;;;;4.68;1.48;;;16.90;93.20;;;;;;5032034;28;20022;-77
2022/07/15 00:08:32;;;;;;;4.85;1.27;;;17.00;93.20;;;;;;5032573;28;20471;-77
2022/07/15 00:10:58;;;;;;;6.85;1.90;;;17.10;93.00;;;;;;5032075;28;20464;-77
2022/07/15 00:13:25;;;;;;;4.85;1.38;;;17.10;92.80;;;;;;5032103;28;20086;-78
2022/07/15 00:15:50;;;;;;;7.57;1.60;;;16.90;93.10;;;;;;5032286;28;20410;-78
2022/07/15 00:18:16;;;;;;;6.20;1.65;;;16.90;93.50;;;;;;5030707;28;20108;-78
2022/07/15 00:20:42;;;;;;;3.95;1.23;;;16.90;93.40;;;;;;5032326;28;20156;-76
2022/07/15 00:23:08;;;;;;;7.57;1.40;;;16.90;93.00;;;;;;5031951;28;20033;-78
2022/07/15 00:25:34;;;;;;;9.10;1.80;;;16.80;93.40;;;;;;5031885;28;20040;-77
2022/07/15 00:28:06;;;;;;;5.88;1.85;;;17.00;93.10;;;;;;5031823;28;20130;-78
2022/07/15 00:30:37;;;;;;;7.15;1.90;;;17.00;92.90;;;;;;5032563;28;20044;-77
2022/07/15 00:33:04;;;;;;;4.32;1.52;;;16.80;93.40;;;;;;5030297;28;20037;-78
2022/07/15 00:35:31;;;;;;;8.02;1.42;;;16.90;93.20;;;;;;5031844;28;20036;-78
2022/07/15 00:37:57;;;;;;;3.72;1.55;;;16.90;93.20;;;;;;5031817;28;20056;-77
2022/07/15 00:40:24;;;;;;;11.65;1.95;;;16.70;93.20;;;;;;5031404;28;20037;-76
2022/07/15 00:42:49;;;;;;;8.50;1.67;;;16.90;93.00;;;;;;5031259;28;20475;-77
2022/07/15 00:45:17;;;;;;;7.03;1.23;;;16.80;92.90;;;;;;5032572;28;20033;-78
2022/07/15 00:47:48;;;;;;;7.40;1.30;;;16.90;93.00;;;;;;5030677;28;20048;-76
2022/07/15 00:50:16;;;;;;;7.38;1.60;;;16.90;93.00;;;;;;5031152;28;20049;-78
2022/07/15 00:52:45;;;;;;;6.15;1.30;;;16.90;92.90;;;;;;5031018;28;20033;-78
2022/07/15 00:55:12;;;;;;;6.53;1.55;;;16.90;92.80;;;;;;5030902;28;20295;-78
2022/07/15 00:57:42;;;;;;;8.77;1.60;;;16.90;92.70;;;;;;5031208;28;20049;-78
2022/07/15 01:00:10;;;;;;;5.50;1.33;;;16.80;92.80;;;;;;5030895;28;20100;-78
2022/07/15 01:02:42;;;;;;;8.93;1.85;;;16.90;92.60;;;;;;5031677;28;20079;-77
2022/07/15 01:05:10;;;;;;;5.40;1.63;;;17.00;92.40;;;;;;5029699;28;20033;-78
2022/07/15 01:07:38;;;;;;;8.07;1.85;;;17.00;92.30;;;;;;5030911;28;20026;-79
2022/07/15 01:10:05;;;;;;;6.43;1.10;;;17.00;92.30;;;;;;5031100;28;20045;-78
2022/07/15 01:12:31;;;;;;;8.60;1.50;;;17.10;92.00;;;;;;5030914;28;20463;-78
2022/07/15 01:14:57;;;;;;;12.15;3.33;;;17.10;92.00;;;;;;5030617;28;20048;-77
2022/07/15 01:17:25;;;;;;;8.10;2.08;;;17.00;91.90;;;;;;5031048;28;20032;-76
2022/07/15 01:19:50;;;;;;;6.20;1.77;;;17.00;91.90;;;;;;5029583;28;20475;-77
2022/07/15 01:22:16;;;;;;;12.02;2.05;;;16.90;91.80;;;;;;5030894;28;20222;-78
2022/07/15 01:24:42;;;;;;;5.32;1.40;;;17.00;91.80;;;;;;5030567;28;20378;-78
2022/07/15 01:27:07;;;;;;;9.45;1.67;;;16.80;92.00;;;;;;5030553;28;20083;-78
2022/07/15 01:29:33;;;;;;;8.32;1.50;;;16.90;92.00;;;;;;5030950;28;20029;-78
2022/07/15 01:31:59;;;;;;;6.72;1.10;;;16.70;92.10;;;;;;5030322;28;20312;-78
2022/07/15 01:34:24;;;;;;;7.10;1.40;;;16.70;92.50;;;;;;5029231;28;20363;-79
2022/07/15 01:36:50;;;;;;;7.50;1.50;;;16.70;92.20;;;;;;5013551;28;20030;-77
2022/07/15 01:39:16;;;;;;;6.38;1.50;;;16.80;91.90;;;;;;5010571;28;20096;-76
2022/07/15 01:41:42;;;;;;;11.20;1.90;;;16.80;91.90;;;;;;5010912;28;20466;-78
2022/07/15 01:44:07;;;;;;;8.05;1.42;;;16.80;91.90;;;;;;5009604;28;20464;-78
2022/07/15 01:46:33;;;;;;;9.13;1.60;;;16.70;91.90;;;;;;5010648;28;20022;-77
2022/07/15 01:51:43;;;;;;;9.48;1.50;;;16.60;92.00;;;;;;5010827;28;20041;-76
2022/07/15 01:54:08;;;;;;;4.70;1.38;;;16.70;91.90;;;;;;5010984;28;20018;-76
2022/07/15 01:56:36;;;;;;;4.28;1.27;;;16.60;91.90;;;;;;5011065;28;20022;-77
2022/07/15 01:59:02;;;;;;;4.03;1.20;;;16.40;92.20;;;;;;5010189;28;20266;-78
2022/07/15 02:01:29;;;;;;;5.97;1.35;;;16.40;92.30;;;;;;5010196;28;20287;-77
2022/07/15 02:03:55;;;;;;;5.57;1.20;;;16.50;92.10;;;;;;5009248;28;20049;-76
2022/07/15 02:06:20;;;;;;;10.52;1.65;;;16.60;91.80;;;;;;5010085;28;20034;-78
2022/07/15 02:08:46;;;;;;;15.07;1.95;;;16.60;91.80;;;;;;5010599;28;20054;-76
2022/07/15 02:11:12;;;;;;;11.70;2.15;;;16.60;91.70;;;;;;5010565;28;20050;-78
2022/07/15 02:13:37;;;;;;;6.38;1.48;;;16.60;91.70;;;;;;5010298;28;20033;-78
2022/07/15 02:16:06;;;;;;;8.27;1.10;;;16.70;91.60;;;;;;5010546;28;20057;-80
2022/07/15 02:18:32;;;;;;;5.47;1.13;;;16.60;91.80;;;;;;5010282;28;20451;-78
2022/07/15 02:20:57;;;;;;;5.65;1.50;;;16.60;91.90;;;;;;5010344;28;20325;-77
2022/07/15 02:23:23;;;;;;;7.28;1.50;;;16.50;91.90;;;;;;5009576;28;20480;-78
2022/07/15 02:25:49;;;;;;;10.60;1.23;;;16.50;92.00;;;;;;5009635;28;20091;-77
2022/07/15 02:28:15;;;;;;;8.32;2.17;;;16.60;92.00;;;;;;5010051;28;20026;-76
2022/07/15 02:30:42;;;;;;;8.85;1.50;;;16.50;92.00;;;;;;5010151;28;20038;-77
2022/07/15 02:33:08;;;;;;;7.57;1.20;;;16.50;92.20;;;;;;5010220;28;20026;-77
2022/07/15 02:35:35;;;;;;;3.20;1.30;;;16.40;92.40;;;;;;5010410;28;20045;-78
2022/07/15 02:38:02;;;;;;;7.07;1.50;;;16.40;92.70;;;;;;5010260;28;20091;-76
2022/07/15 02:40:30;;;;;;;10.45;1.48;;;16.40;92.90;;;;;;5010037;28;20041;-78
2022/07/15 02:42:58;;;;;;;6.57;1.27;;;16.50;92.80;;;;;;5010146;28;20480;-77
2022/07/15 02:45:26;;;;;;;9.88;1.63;;;16.40;93.00;;;;;;5008758;28;20034;-76
2022/07/15 02:47:52;;;;;;;5.97;1.77;;;16.40;93.10;;;;;;5009140;28;20033;-75
2022/07/15 02:50:19;;;;;;;4.03;1.33;;;16.40;93.30;;;;;;5010289;28;20444;-76
2022/07/15 02:52:45;;;;;;;8.90;1.30;;;16.40;93.50;;;;;;5009927;28;20476;-75
2022/07/15 02:55:11;;;;;;;9.68;1.55;;;16.20;93.80;;;;;;5009594;28;20083;-76
2022/07/15 02:57:37;;;;;;;8.07;1.77;;;16.30;93.70;;;;;;5008605;28;20037;-76
2022/07/15 03:00:06;;;;;;;6.50;1.13;;;16.30;93.60;;;;;;5009654;28;20095;-77
2022/07/15 03:02:32;;;;;;;5.35;1.42;;;16.30;93.80;;;;;;5010263;28;20084;-77
2022/07/15 03:04:57;;;;;;;8.25;1.52;;;16.20;93.90;;;;;;5009678;28;20033;-77
2022/07/15 03:07:23;;;;;;;8.05;1.73;;;16.10;94.10;;;;;;5009929;28;20038;-77
2022/07/15 03:09:49;;;;;;;7.03;1.63;;;15.80;94.50;;;;;;5010652;28;20444;-77
2022/07/15 03:12:15;;;;;;;9.48;2.42;;;15.90;94.40;;;;;;5013246;28;20034;-78
2022/07/15 03:14:41;;;;;;;10.48;1.83;;;15.80;94.50;;;;;;5012597;28;20467;-77
2022/07/15 03:17:07;;;;;;;7.35;2.17;;;15.90;94.40;;;;;;5013229;28;20272;-78
2022/07/15 03:19:33;;;;;;;6.85;1.48;;;15.80;94.40;;;;;;5013395;28;20391;-76
2022/07/15 03:21:59;;;;;;;8.77;1.88;;;16.00;94.20;;;;;;5012930;28;20069;-76
2022/07/15 03:24:25;;;;;;;6.18;1.50;;;15.90;94.30;;;;;;5013042;28;20116;-77
2022/07/15 03:26:51;;;;;;;7.20;1.65;;;15.80;94.30;;;;;;5012927;28;20436;-76
2022/07/15 03:29:17;;;;;;;9.73;1.95;;;15.80;94.50;;;;;;5013278;28;20111;-77
2022/07/15 03:31:43;;;;;;;5.05;1.35;;;15.70;94.60;;;;;;5012988;28;20272;-77
2022/07/15 03:34:10;;;;;;;12.30;1.95;;;15.70;94.50;;;;;;5012826;28;20557;-78
2022/07/15 03:36:37;;;;;;;6.50;1.38;;;15.70;94.50;;;;;;5012721;28;20038;-78
2022/07/15 03:39:04;;;;;;;13.03;2.63;;;15.80;94.40;;;;;;5012758;28;20467;-77
2022/07/15 03:41:29;;;;;;;12.90;1.90;;;15.80;94.30;;;;;;5011808;28;20333;-78
2022/07/15 03:43:55;;;;;;;6.75;1.60;;;15.70;94.60;;;;;;5011738;28;20463;-76
2022/07/15 03:46:21;;;;;;;7.53;2.10;;;15.70;94.60;;;;;;5012720;28;20543;-77
2022/07/15 03:48:47;;;;;;;9.02;2.20;;;15.80;94.40;;;;;;5011512;28;20109;-77
2022/07/15 03:51:13;;;;;;;8.57;1.75;;;15.70;94.40;;;;;;5011455;28;20041;-77
2022/07/15 03:53:38;;;;;;;4.20;1.60;;;15.80;94.40;;;;;;5012902;28;20044;-78
2022/07/15 03:56:07;;;;;;;4.00;1.30;;;15.80;94.30;;;;;;5012472;28;20141;-78
2022/07/15 03:58:33;;;;;;;10.45;1.40;;;15.60;94.50;;;;;;5012462;28;20030;-78
2022/07/15 04:00:59;;;;;;;8.30;1.35;;;15.70;94.40;;;;;;5012311;28;20585;-77
2022/07/15 04:03:25;;;;;;;6.85;1.40;;;15.80;94.30;;;;;;5012286;28;20046;-76
2022/07/15 04:05:51;;;;;;;7.38;1.23;;;15.90;94.20;;;;;;5012606;28;20444;-77
2022/07/15 04:08:17;;;;;;;9.57;1.90;;;15.70;94.40;;;;;;5012298;28;20563;-76
2022/07/15 04:10:42;;;;;;;8.93;1.77;;;15.80;94.40;;;;;;5012200;28;20124;-75
2022/07/15 04:13:08;;;;;;;7.93;1.52;;;15.80;94.30;;;;;;5012046;28;20122;-78
2022/07/15 04:15:34;;;;;;;10.65;1.85;;;15.90;94.10;;;;;;5012056;28;20452;-76
2022/07/15 04:18:01;;;;;;;7.70;1.70;;;16.00;93.90;;;;;;5011993;28;20345;-78
2022/07/15 04:20:27;;;;;;;8.27;2.47;;;15.90;94.10;;;;;;5012171;28;20033;-77
2022/07/15 04:22:53;;;;;;;9.30;1.63;;;15.60;94.60;;;;;;5011884;28;20108;-77
2022/07/15 04:25:21;;;;;;;7.60;2.20;;;15.60;94.70;;;;;;5012008;28;20100;-77
2022/07/15 04:27:50;;;;;;;8.55;2.08;;;15.60;94.70;;;;;;5011786;28;20072;-77
2022/07/15 04:30:15;;;;;;;7.72;1.60;;;15.70;95.00;;;;;;5010700;28;20030;-78
2022/07/15 04:32:43;;;;;;;11.13;1.88;;;15.70;94.80;;;;;;5012346;28;20396;-76
2022/07/15 04:35:09;;;;;;;6.15;1.73;;;15.70;94.80;;;;;;5011576;28;20053;-77
2022/07/15 04:37:34;;;;;;;12.35;1.90;;;15.50;95.00;;;;;;5011536;28;20171;-76
2022/07/15 04:40:00;;;;;;;13.55;2.25;;;15.60;95.10;;;;;;5011379;28;20511;-77
2022/07/15 04:42:26;;;;;;;13.90;2.10;;;15.70;94.90;;;;;;5011456;28;20112;-77
2022/07/15 04:44:52;;;;;;;10.98;2.38;;;15.60;94.90;;;;;;5011411;28;20029;-76
2022/07/15 04:47:19;;;;;;;11.88;2.10;;;15.70;95.20;;;;;;5011935;28;20097;-78
2022/07/15 04:52:30;;;;;;;10.55;2.17;;;15.70;95.00;;;;;;5011557;28;20476;-76
2022/07/15 04:54:56;;;;;;;19.77;2.60;;;15.80;94.70;;;;;;5010357;28;20050;-77
2022/07/15 04:57:22;;;;;;;12.43;1.77;;;15.90;94.50;;;;;;5011613;28;20262;-78
2022/07/15 04:59:48;;;;;;;9.40;2.00;;;16.00;94.50;;;;;;5011900;28;20029;-76
2022/07/15 05:02:14;;;;;;;8.60;1.80;;;16.10;94.30;;;;;;5010250;28;20041;-76
2022/07/15 05:04:40;;;;;;;36.15;5.93;;;15.90;94.50;;;;;;5011397;28;20200;-77
2022/07/15 05:07:06;;;;;;;12.80;1.63;;;16.00;94.70;;;;;;5011426;28;20038;-77
2022/07/15 05:09:32;;;;;;;12.52;2.30;;;16.00;94.70;;;;;;5011226;28;20187;-77
2022/07/15 05:11:57;;;;;;;15.68;2.25;;;16.00;94.60;;;;;;5011538;28;20409;-77
2022/07/15 05:14:23;;;;;;;10.00;2.08;;;16.10;94.70;;;;;;5011755;28;20121;-76
2022/07/15 05:16:50;;;;;;;7.30;1.70;;;16.10;95.20;;;;;;5011223;28;20030;-77
2022/07/15 05:19:16;;;;;;;7.47;1.92;;;16.00;94.80;;;;;;5009738;28;20106;-76
2022/07/15 05:21:41;;;;;;;9.80;2.50;;;16.10;94.80;;;;;;5010959;28;20133;-77
2022/07/15 05:24:07;;;;;;;10.25;2.20;;;16.00;94.90;;;;;;5010966;28;20092;-76
2022/07/15 05:26:33;;;;;;;10.00;2.55;;;16.10;95.00;;;;;;5010256;28;20041;-77
2022/07/15 05:28:58;;;;;;;8.63;2.10;;;16.10;94.90;;;;;;5009627;28;20373;-79
2022/07/15 05:31:24;;;;;;;8.85;2.00;;;16.10;95.10;;;;;;5011100;28;20103;-77
2022/07/15 05:33:52;;;;;;;11.63;2.25;;;16.10;95.20;;;;;;5010397;28;20317;-78
2022/07/15 05:36:18;;;;;;;7.22;1.60;;;16.10;95.20;;;;;;5010823;28;20469;-77
2022/07/15 05:38:44;;;;;;;12.52;1.77;;;16.20;95.20;;;;;;5011364;28;20069;-79
2022/07/15 05:41:10;;;;;;;15.60;2.38;;;16.20;95.10;;;;;;5008722;28;20038;-77
2022/07/15 05:43:36;;;;;;;9.05;2.10;;;16.30;95.50;;;;;;5024657;28;20108;-79
2022/07/15 05:46:05;;;;;;;9.05;1.63;;;16.30;95.30;;;;;;5031271;28;20113;-78
2022/07/15 05:48:31;;;;;;;9.50;2.17;;;16.30;95.30;;;;;;5031231;28;20057;-74
2022/07/15 05:50:57;;;;;;;11.60;2.10;;;16.30;95.20;;;;;;5031141;28;20411;-75
2022/07/15 05:53:23;;;;;;;14.07;2.13;;;16.50;95.10;;;;;;5031238;28;20097;-74
2022/07/15 05:55:48;;;;;;;15.13;2.17;;;16.60;95.00;;;;;;5030901;28;20476;-75
2022/07/15 05:58:14;;;;;;;6.63;1.75;;;16.40;95.20;;;;;;5030989;28;20387;-76
2022/07/15 06:00:40;;;;;;;12.95;2.08;;;16.50;95.00;;;;;;5031062;28;20451;-78
2022/07/15 06:03:06;;;;;;;11.50;1.92;;;16.50;95.10;;;;;;5029976;28;20025;-77
2022/07/15 06:05:32;;;;;;;19.38;2.38;;;16.40;95.30;;;;;;5031626;28;20483;-77
2022/07/15 06:07:58;;;;;;;9.68;2.00;;;16.50;95.10;;;;;;5030984;28;20025;-79
2022/07/15 06:10:24;;;;;;;13.13;3.30;;;16.50;95.10;;;;;;5030710;28;20423;-75
2022/07/15 06:12:52;;;;;;;9.15;2.38;;;16.60;95.00;;;;;;5029624;28;20493;-75
2022/07/15 06:15:19;;;;;;;10.60;2.03;;;16.80;94.70;;;;;;5030528;28;20095;-73
2022/07/15 06:17:45;;;;;;;7.70;2.08;;;16.80;94.60;;;;;;5030874;28;20095;-75
2022/07/15 06:20:11;;;;;;;10.02;1.95;;;16.90;94.50;;;;;;5030455;28;20117;-74
2022/07/15 06:22:37;;;;;;;7.13;2.22;;;17.10;94.20;;;;;;5030605;28;20088;-76
2022/07/15 06:25:03;;;;;;;5.60;1.52;;;17.10;94.10;;;;;;5030575;28;20037;-76
2022/07/15 06:27:30;;;;;;;9.15;1.75;;;17.20;93.90;;;;;;5030944;28;20072;-75
2022/07/15 06:29:57;;;;;;;7.07;1.38;;;17.10;93.50;;;;;;5030473;28;20030;-76
2022/07/15 06:32:23;;;;;;;9.68;2.65;;;17.10;93.50;;;;;;5030420;28;20033;-73
2022/07/15 06:34:49;;;;;;;13.48;1.98;;;17.20;93.40;;;;;;5030441;28;20025;-74
2022/07/15 06:37:15;;;;;;;9.30;1.83;;;17.40;93.40;;;;;;5030628;28;20128;-74
2022/07/15 06:39:40;;;;;;;6.93;1.45;;;17.50;93.20;;;;;;5031124;28;20515;-73
2022/07/15 06:42:06;;;;;;;9.25;1.90;;;17.50;93.10;;;;;;5030315;28;20049;-73
2022/07/15 06:44:32;;;;;;;8.20;1.58;;;17.60;93.10;;;;;;5031386;28;20025;-75
2022/07/15 06:46:57;;;;;;;7.50;1.52;;;17.70;93.00;;;;;;5033643;28;20025;-74
2022/07/15 06:49:23;;;;;;;9.23;1.95;;;17.90;92.70;;;;;;5033641;28;20060;-74
2022/07/15 06:51:49;;;;;;;9.50;1.60;;;17.90;92.40;;;;;;5033596;28;20055;-74
2022/07/15 06:54:15;;;;;;;4.75;1.23;;;17.90;92.10;;;;;;5033451;28;20150;-77
2022/07/15 06:56:40;;;;;;;11.32;2.30;;;17.90;91.90;;;;;;5034067;28;20355;-74
2022/07/15 06:59:06;;;;;;;8.40;1.70;;;18.00;91.90;;;;;;5033830;28;20341;-77
2022/07/15 07:01:33;;;;;;;11.40;1.70;;;18.10;91.90;;;;;;5033698;28;20045;-75
2022/07/15 07:03:59;;;;;;;8.93;1.40;;;18.20;91.60;;;;;;5033657;28;20376;-75
2022/07/15 07:06:26;;;;;;;5.95;1.20;;;18.10;91.50;;;;;;5033367;28;20353;-75
2022/07/15 07:08:52;;;;;;;8.80;1.80;;;18.00;91.60;;;;;;5034133;28;20021;-73
2022/07/15 07:11:19;;;;;;;5.75;1.50;;;18.10;91.50;;;;;;5033976;28;20096;-74
2022/07/15 07:13:45;;;;;;;12.10;1.73;;;18.00;90.90;;;;;;5034477;28;20037;-76
2022/07/15 07:16:12;;;;;;;6.43;1.15;;;18.10;90.60;;;;;;5034778;28;20057;-75
2022/07/15 07:18:37;;;;;;;12.70;2.40;;;18.00;90.50;;;;;;5034541;28;20034;-78
2022/07/15 07:21:06;;;;;;;3.63;0.90;;;18.10;90.50;;;;;;5033887;28;20104;-77
2022/07/15 07:23:32;;;;;;;4.22;1.23;;;18.10;90.50;;;;;;5034328;28;20053;-76
2022/07/15 07:25:59;;;;;;;4.00;0.90;;;18.00;90.50;;;;;;5033988;28;20061;-75
2022/07/15 07:28:25;;;;;;;4.18;1.10;;;18.00;90.60;;;;;;5032676;28;20053;-78
2022/07/15 07:30:52;;;;;;;5.00;1.70;;;18.10;90.40;;;;;;5034134;28;20044;-76
2022/07/15 07:33:18;;;;;;;11.70;1.77;;;18.30;90.30;;;;;;5034347;28;20091;-75
2022/07/15 07:35:44;;;;;;;6.35;1.10;;;18.20;89.50;;;;;;5034715;28;20033;-77
2022/07/15 07:38:11;;;;;;;7.65;1.30;;;18.20;89.90;;;;;;5034193;28;20044;-77
2022/07/15 07:40:36;;;;;;;10.50;1.20;;;18.20;89.70;;;;;;5032762;28;20159;-75
2022/07/15 07:43:02;;;;;;;5.53;0.93;;;18.30;89.60;;;;;;5033682;28;20430;-76
2022/07/15 07:45:28;;;;;;;7.10;1.27;;;18.50;89.30;;;;;;5033124;28;20056;-75
2022/07/15 07:47:55;;;;;;;10.55;1.75;;;18.70;89.30;;;;;;5033499;28;20338;-72
2022/07/15 07:50:21;;;;;;;7.57;1.40;;;18.60;89.70;;;;;;5033110;28;20462;-74
2022/07/15 07:52:47;;;;;;;3.90;1.00;;;18.70;88.30;;;;;;5033085;28;20029;-72
2022/07/15 07:55:14;;;;;;;4.18;0.82;;;18.90;87.40;;;;;;5032552;28;20360;-73
2022/07/15 07:57:53;;;;;;;4.88;1.15;;;19.00;87.10;;;;;;5032414;28;20072;-72
2022/07/15 08:00:20;;;;;;;3.30;0.77;;;19.20;85.60;;;;;;5031618;28;20513;-72
2022/07/15 08:02:46;;;;;;;2.75;0.82;;;19.30;84.40;;;;;;5032776;28;20105;-72
2022/07/15 08:05:13;;;;;;;4.28;0.68;;;19.30;84.10;;;;;;5032178;28;20101;-73
2022/07/15 08:07:41;;;;;;;3.28;0.82;;;19.40;83.70;;;;;;5030801;28;20542;-73
2022/07/15 08:10:10;;;;;;;6.55;1.55;;;19.40;82.80;;;;;;5031880;28;20450;-73
2022/07/15 08:12:37;;;;;;;4.07;0.90;;;19.60;82.30;;;;;;5031806;28;20037;-73
2022/07/15 08:15:05;;;;;;;4.63;1.27;;;19.50;81.90;;;;;;5031220;28;20467;-72
2022/07/15 08:17:30;;;;;;;3.70;1.40;;;19.60;82.10;;;;;;5032369;28;20093;-73
2022/07/15 08:19:56;;;;;;;8.50;1.38;;;19.50;81.70;;;;;;5031607;28;20179;-73
2022/07/15 08:22:22;;;;;;;5.13;1.10;;;19.60;81.50;;;;;;5031620;28;20072;-71
2022/07/15 08:24:49;;;;;;;2.88;0.57;;;19.70;82.10;;;;;;5031796;28;20033;-74
2022/07/15 08:27:16;;;;;;;8.43;0.90;;;19.60;80.50;;;;;;5031677;28;20030;-72
2022/07/15 08:29:42;;;;;;;5.90;1.42;;;19.60;80.30;;;;;;5031134;28;20504;-71
2022/07/15 08:32:08;;;;;;;8.23;1.00;;;19.50;81.90;;;;;;5031715;28;20030;-72
2022/07/15 08:34:33;;;;;;;4.00;0.80;;;19.70;80.70;;;;;;5031409;28;20340;-73
2022/07/15 08:36:59;;;;;;;4.35;0.75;;;20.40;78.40;;;;;;5031427;28;20041;-72
2022/07/15 08:39:25;;;;;;;5.93;1.13;;;20.30;75.30;;;;;;5031337;28;20524;-73
2022/07/15 08:41:52;;;;;;;5.40;0.98;;;20.30;75.50;;;;;;5031798;28;20029;-71
2022/07/15 08:44:18;;;;;;;4.80;0.70;;;20.80;76.00;;;;;;5031748;28;20030;-72
2022/07/15 08:46:47;;;;;;;5.53;0.90;;;20.90;73.70;;;;;;5030523;28;20145;-72
2022/07/15 08:49:16;;;;;;;1.77;0.60;;;20.30;73.30;;;;;;5031371;28;20036;-73
2022/07/15 08:51:44;;;;;;;5.82;0.68;;;20.30;73.70;;;;;;5030469;28;20240;-71
2022/07/15 08:54:10;;;;;;;;;;;19.90;73.40;;;;;;5031585;28;20033;-72
2022/07/15 08:56:37;;;;;;;3.97;0.90;;;19.70;74.50;;;;;;5031416;28;20232;-72
2022/07/15 08:59:05;;;;;;;4.18;0.88;;;19.80;75.20;;;;;;5030032;28;20033;-71
2022/07/15 09:01:32;;;;;;;8.95;2.20;;;19.80;75.60;;;;;;5031032;28;20029;-72
2022/07/15 09:03:58;;;;;;;5.75;1.13;;;19.70;75.80;;;;;;5031129;28;20030;-72
2022/07/15 09:07:03;;;;;;;3.30;0.85;;;19.80;76.10;;;;;;5030319;28;20060;-73
2022/07/15 09:09:30;;;;;;;6.57;1.13;;;19.70;76.60;;;;;;4992050;28;20433;-72
2022/07/15 09:11:57;;;;;;;6.10;0.45;;;19.70;75.70;;;;;;5022721;28;20038;-72
2022/07/15 09:14:28;;;;;;;3.80;0.90;;;19.60;76.00;;;;;;5031529;28;20092;-71
2022/07/15 09:17:11;;;;;;;2.83;0.85;;;19.70;76.60;;;;;;5030820;28;20049;-73
2022/07/15 09:19:58;;;;;;;1.13;0.60;;;19.80;75.90;;;;;;5029682;28;20051;-73
2022/07/15 09:22:26;;;;;;;5.45;1.10;;;19.60;76.00;;;;;;5030839;28;20045;-73
2022/07/15 09:25:04;;;;;;;8.77;1.63;;;19.80;76.80;;;;;;5030704;28;20121;-72
2022/07/15 09:27:32;;;;;;;4.05;0.93;;;19.80;76.60;;;;;;5030886;28;20033;-71
2022/07/15 09:36:05;;;;;;;4.28;0.90;;;19.60;76.40;;;;;;5031217;28;20478;-72
2022/07/15 09:38:56;;;;;;;5.32;0.93;;;19.40;76.90;;;;;;5030985;28;20041;-71
2022/07/15 09:41:41;;;;;;;5.28;1.15;;;19.30;77.40;;;;;;5030422;28;20484;-73
2022/07/15 09:44:15;;;;;;;10.45;1.58;;;19.40;77.30;;;;;;5030342;28;20357;-72
2022/07/15 09:46:48;;;;;;;6.00;0.93;;;19.40;78.30;;;;;;5030484;28;20087;-71
2022/07/15 09:49:17;;;;;;;4.85;1.48;;;19.30;77.40;;;;;;5030743;28;20036;-72
2022/07/15 09:51:53;;;;;;;4.28;1.20;;;19.40;77.30;;;;;;5034937;28;20025;-72
2022/07/15 09:54:19;;;;;;;7.30;0.95;;;19.40;76.70;;;;;;5030238;28;20154;-72
2022/07/15 09:56:48;;;;;;;6.00;0.93;;;19.50;77.20;;;;;;5030775;28;20069;-73
2022/07/15 09:59:15;;;;;;;6.63;1.25;;;19.70;77.10;;;;;;5030236;28;20044;-71
2022/07/15 10:01:42;;;;;;;11.80;2.25;;;19.50;76.20;;;;;;5029886;28;20479;-72
2022/07/15 10:04:08;;;;;;;6.88;1.10;;;19.70;78.10;;;;;;5029892;28;20117;-71
2022/07/15 10:06:38;;;;;;;7.88;1.00;;;19.70;76.60;;;;;;5028827;28;20030;-72
2022/07/15 10:09:05;;;;;;;6.28;1.17;;;19.80;76.80;;;;;;5028894;28;20026;-73
2022/07/15 10:11:41;;;;;;;3.42;1.25;;;19.80;77.00;;;;;;5012818;28;20026;-70
2022/07/15 10:14:26;;;;;;;5.78;0.80;;;19.80;76.90;;;;;;5011018;28;20038;-72
2022/07/15 10:17:11;;;;;;;2.50;1.00;;;19.60;75.80;;;;;;5010968;28;20125;-73
2022/07/15 10:19:57;;;;;;;4.00;0.65;;;19.40;76.50;;;;;;5013476;28;20092;-73
2022/07/15 10:22:47;;;;;;;13.95;1.63;;;19.30;76.70;;;;;;5013818;28;20033;-73
2022/07/15 10:25:22;;;;;;;4.15;1.08;;;19.30;76.70;;;;;;5015086;28;20037;-71
2022/07/15 10:28:14;;;;;;;4.68;0.70;;;19.30;77.20;;;;;;5014915;28;20116;-74
2022/07/15 10:30:42;;;;;;;5.63;1.10;;;19.20;77.40;;;;;;5014580;28;20037;-71
2022/07/15 10:33:17;;;;;;;7.05;1.85;;;19.20;77.90;;;;;;5014795;28;20028;-73
2022/07/15 10:35:50;;;;;;;8.63;1.80;;;19.30;77.80;;;;;;5015297;28;20018;-72
2022/07/15 10:38:33;;;;;;;6.10;1.10;;;19.00;78.20;;;;;;5014827;28;20034;-74
2022/07/15 10:41:21;;;;;;;3.28;0.95;;;19.00;78.40;;;;;;5014836;28;20088;-73
2022/07/15 10:43:53;;;;;;;2.15;0.82;;;19.20;79.10;;;;;;5014663;28;20030;-71
2022/07/15 10:46:28;;;;;;;3.20;1.00;;;19.30;78.30;;;;;;5014587;28;20085;-73
2022/07/15 10:49:00;;;;;;;2.58;0.60;;;19.50;78.30;;;;;;5014727;28;20068;-70
2022/07/15 10:51:34;;;;;;;6.88;1.75;;;19.60;77.20;;;;;;5014343;28;20030;-71
2022/07/15 10:54:01;;;;;;;5.15;1.38;;;19.80;77.50;;;;;;5014265;28;20034;-72
2022/07/15 10:56:42;;;;;;;5.57;0.93;;;20.00;76.80;;;;;;5014883;28;20136;-71
2022/07/15 10:59:14;;;;;;;3.97;1.05;;;20.00;76.40;;;;;;5013204;28;20490;-72
2022/07/15 11:01:45;;;;;;;3.10;1.13;;;20.40;77.50;;;;;;5014287;28;20359;-73
2022/07/15 11:04:25;;;;;;;3.38;0.73;;;20.70;76.40;;;;;;5014675;28;20030;-72
2022/07/15 11:07:04;;;;;;;4.15;0.80;;;21.10;75.90;;;;;;5014378;28;20103;-72
2022/07/15 11:10:08;;;;;;;4.72;0.82;;;21.30;74.30;;;;;;5014443;28;20412;-72
2022/07/15 11:12:36;;;;;;;4.78;1.38;;;21.40;75.40;;;;;;5013477;28;20050;-74
2022/07/15 11:15:13;;;;;;;1.90;0.73;;;21.60;73.50;;;;;;5013187;28;20029;-76
2022/07/15 11:17:42;;;;;;;4.97;0.70;;;21.70;72.10;;;;;;5034489;28;20072;-76
2022/07/15 11:20:17;;;;;;;3.13;0.55;;;21.50;70.60;;;;;;5034495;28;20029;-76
2022/07/15 11:22:47;;;;;;;2.08;0.63;;;21.30;71.00;;;;;;5033680;28;20088;-73
2022/07/15 11:25:20;;;;;;;4.15;1.02;;;21.40;71.00;;;;;;5033445;28;20026;-73
2022/07/15 11:28:18;;;;;;;2.70;0.82;;;21.40;71.00;;;;;;5033514;28;20045;-73
2022/07/15 11:30:53;;;;;;;6.70;1.65;;;21.20;71.30;;;;;;5019677;28;20030;-73
2022/07/15 11:33:21;;;;;;;2.53;0.70;;;21.30;71.50;;;;;;5033564;28;20037;-71
2022/07/15 11:35:56;;;;;;;4.13;0.90;;;21.30;71.40;;;;;;5032682;28;20040;-73
2022/07/15 11:38:27;;;;;;;2.40;0.68;;;21.10;71.50;;;;;;5033295;28;20091;-72
2022/07/15 11:46:44;;;;;;;4.75;1.17;;;21.00;72.20;;;;;;5033242;28;20128;-72
2022/07/15 11:49:10;;;;;;;6.93;1.25;;;21.20;72.50;;;;;;5032213;28;20037;-71
2022/07/15 11:51:36;;;;;;;5.53;0.88;;;21.20;72.60;;;;;;5033334;28;20022;-71
2022/07/15 11:54:02;;;;;;;5.55;1.15;;;21.40;72.40;;;;;;5024824;28;20026;-71
2022/07/15 11:56:28;;;;;;;2.78;0.75;;;21.50;71.30;;;;;;5033433;28;20044;-71
2022/07/15 11:58:56;;;;;;;7.90;1.10;;;21.50;71.80;;;;;;5033797;28;20498;-72
2022/07/15 12:01:24;;;;;;;11.75;3.13;;;21.60;71.30;;;;;;5033355;28;20034;-70
2022/07/15 12:03:53;;;;;;;3.30;1.10;;;21.70;70.80;;;;;;5033795;28;20039;-71
2022/07/15 12:06:21;;;;;;;6.07;0.93;;;21.60;70.80;;;;;;5033843;28;20041;-72
2022/07/15 12:08:46;;;;;;;;;;;21.80;70.80;;;;;;5034814;28;20032;-71
2022/07/15 12:11:32;;;;;;;4.57;1.27;;;21.80;69.90;;;;;;5032193;28;19909;-71
2022/07/15 12:14:00;;;;;;;4.82;0.90;;;21.50;69.70;;;;;;5033706;28;20037;-72
2022/07/15 12:16:25;;;;;;;2.53;0.68;;;21.60;70.30;;;;;;5033384;28;20037;-72
2022/07/15 12:18:53;;;;;;;5.30;1.80;;;21.50;70.10;;;;;;5033609;28;20512;-71
2022/07/15 12:21:20;;;;;;;7.05;1.88;;;21.50;70.00;;;;;;5023480;28;20041;-70
2022/07/15 12:24:03;;;;;;;4.63;1.20;;;21.40;70.40;;;;;;5013138;28;20099;-70
2022/07/15 12:26:30;;;;;;;4.75;0.90;;;21.40;71.00;;;;;;5012986;28;20034;-74
2022/07/15 12:28:58;;;;;;;4.70;1.08;;;21.50;70.20;;;;;;5012015;28;20404;-72
2022/07/15 12:31:29;;;;;;;5.35;0.90;;;21.40;69.60;;;;;;5011257;28;20026;-70
2022/07/15 12:33:55;;;;;;;5.40;2.22;;;21.20;69.40;;;;;;5012525;28;20117;-71
2022/07/15 12:36:24;;;;;;;6.68;3.40;;;21.30;69.70;;;;;;5012274;28;20109;-73
2022/07/15 12:39:11;;;;;;;5.40;1.33;;;21.20;69.30;;;;;;5011980;28;20034;-72
2022/07/15 12:41:38;;;;;;;1.17;0.52;;;21.30;70.40;;;;;;5012832;28;20044;-72
2022/07/15 12:44:05;;;;;;;4.70;1.23;;;21.30;69.10;;;;;;5012355;28;20121;-72
2022/07/15 12:46:55;;;;;;;5.00;1.08;;;21.20;69.60;;;;;;5012341;28;20473;-77
2022/07/15 12:49:42;;;;;;;1.52;0.70;;;21.30;69.60;;;;;;5012213;28;20084;-75
2022/07/15 12:52:36;;;;;;;2.60;0.90;;;21.20;69.70;;;;;;5012651;28;20088;-74
2022/07/15 12:55:19;;;;;;;2.08;0.90;;;21.00;69.80;;;;;;5012277;28;20073;-75
2022/07/15 12:57:45;;;;;;;14.70;1.55;;;20.90;69.80;;;;;;5012255;28;20573;-74
2022/07/15 13:00:17;;;;;;;6.50;2.60;;;21.00;70.40;;;;;;5011549;28;20492;-74
2022/07/15 13:03:06;;;;;;;2.97;0.50;;;20.90;70.20;;;;;;5011523;28;20022;-75
2022/07/15 13:05:42;;;;;;;7.50;0.88;;;20.90;70.50;;;;;;5007653;28;20475;-75
2022/07/15 13:08:11;;;;;;;5.95;1.45;;;20.70;70.00;;;;;;5010747;28;20042;-73
2022/07/15 13:10:39;;;;;;;1.70;0.82;;;20.50;70.00;;;;;;5011612;28;20041;-72